Ronald N — A8PQ3 — position and weather

sailwx.info

Track history (hours):
 
Tides and Currents Weather Stations Pressure Air Temp Water Temp Dewpoint Dewpoint Depression Visibility Wind Speed Wind Dir Waves Ship Positions

Ronald N

Last reported at 2017-Oct-20 13:30 UTC. Time now 2017-Oct-20 13:59 UTC.
Position N 01°03' E 103°39'.

Length 227 m; draft 11 m.

Type: Ship (hazmat cat A). MMSI: 636013812.

Date/timePositionNaut miles runAvg speedWind from/ knotsBaromVisibWave heightAir tempDewpointWater temp
2017-Oct-20 13:30N 01°03' E 103°39'713.5
2017-Oct-20 12:59N 01°07' E 103°33'4 8.9
2017-Oct-20 12:30N 01°11' E 103°35'713.8
2017-Oct-20 12:00N 01°10' E 103°42'1 2.2
2017-Oct-20 11:28N 01°11' E 103°42'0 0.1
2017-Oct-20 10:58N 01°11' E 103°43'0 0.0
2017-Oct-20 10:28N 01°11' E 103°43'0 0.1
2017-Oct-20 09:55N 01°11' E 103°43'0 0.0
2017-Oct-20 09:28N 01°11' E 103°43'0 0.0
2017-Oct-20 08:58N 01°11' E 103°43'0 0.0
2017-Oct-20 08:28N 01°11' E 103°43'0 0.0
2017-Oct-20 07:58N 01°11' E 103°43'0 0.0
2017-Oct-20 07:28N 01°11' E 103°43'0 0.0
2017-Oct-20 06:58N 01°11' E 103°43'0 0.0
2017-Oct-20 06:28N 01°11' E 103°43'0 0.1
2017-Oct-20 05:55N 01°11' E 103°43'0 0.0
2017-Oct-20 05:28N 01°11' E 103°43'0 0.0
2017-Oct-20 04:58N 01°11' E 103°43'0 0.0
2017-Oct-20 04:28N 01°11' E 103°43'0 0.0
2017-Oct-20 03:58N 01°11' E 103°43'0 0.0
2017-Oct-20 03:28N 01°11' E 103°43'0 0.0
2017-Oct-20 02:58N 01°11' E 103°43'0 0.0
2017-Oct-20 02:28N 01°11' E 103°43'0 0.0
2017-Oct-20 01:58N 01°11' E 103°43'0 0.2
2017-Oct-20 01:25N 01°11' E 103°43'0 0.4
2017-Oct-20 00:55N 01°11' E 103°42'0 0.2
2017-Oct-20 00:28N 01°11' E 103°42'0 0.0
2017-Oct-19 23:58N 01°11' E 103°42'0 0.0
2017-Oct-19 23:28N 01°11' E 103°42'0 0.0
2017-Oct-19 22:55N 01°11' E 103°42'0 0.0
2017-Oct-19 22:28N 01°11' E 103°42'0 0.1
2017-Oct-19 21:22N 01°11' E 103°42'0 0.2
2017-Oct-19 20:58N 01°11' E 103°43'0 0.0
2017-Oct-19 20:28N 01°11' E 103°43'0 0.0
2017-Oct-19 19:55N 01°11' E 103°43'0 0.0
2017-Oct-19 19:19N 01°11' E 103°43'0 0.2
2017-Oct-19 18:58N 01°11' E 103°43'0 0.1
2017-Oct-19 18:25N 01°11' E 103°43'0 0.1
2017-Oct-19 17:58N 01°11' E 103°43'0 0.0
2017-Oct-19 17:25N 01°11' E 103°43'0 0.1
2017-Oct-19 16:58N 01°11' E 103°43'0 0.9
2017-Oct-19 16:30N 01°10' E 103°43'2 4.5
2017-Oct-19 16:00N 01°11' E 103°41'4 8.8
2017-Oct-19 15:30N 01°12' E 103°36'712.7
2017-Oct-19 14:59N 01°10' E 103°30'714.2
2017-Oct-19 14:29N 01°13' E 103°24'714.9
2017-Oct-19 13:59N 01°17' E 103°18'815.1
2017-Oct-19 13:29N 01°22' E 103°12'1015.1
2017-Oct-19 12:50N 01°28' E 103°04'  
2017-Oct-14 06:00S 06°06' E 078°36'12816.0 120 1011.010.8 27.024.328.0
2017-Oct-13 22:00S 07°24' E 076°54'21715.5 120 / 161009.010.8 26.023.028.0
2017-Oct-13 08:00S 09°36' E 074°00'30012.0 120 / 431010.010.8 28.022.028.0
2017-Oct-12 07:00S 12°42' E 070°00'   100 1011.010.8 25.019.026.0
Track history (hours):
 
Tides and Currents Weather Stations Pressure Air Temp Water Temp Dewpoint Dewpoint Depression Visibility Wind Speed Wind Dir Waves Ship Positions

Ronald N

Last reported at 2017-Oct-20 13:30 UTC. Time now 2017-Oct-20 13:59 UTC.
Position N 01°03' E 103°39'.

Length 227 m; draft 11 m.

Type: Ship (hazmat cat A). MMSI: 636013812.

Date/timePositionNaut miles runAvg speedWind from/ knotsBaromVisibWave heightAir tempDewpointWater temp
2017-Oct-20 13:30N 01°03' E 103°39'713.5
2017-Oct-20 12:59N 01°07' E 103°33'4 8.9
2017-Oct-20 12:30N 01°11' E 103°35'713.8
2017-Oct-20 12:00N 01°10' E 103°42'1 2.2
2017-Oct-20 11:28N 01°11' E 103°42'0 0.1
2017-Oct-20 10:58N 01°11' E 103°43'0 0.0
2017-Oct-20 10:28N 01°11' E 103°43'0 0.1
2017-Oct-20 09:55N 01°11' E 103°43'0 0.0
2017-Oct-20 09:28N 01°11' E 103°43'0 0.0
2017-Oct-20 08:58N 01°11' E 103°43'0 0.0
2017-Oct-20 08:28N 01°11' E 103°43'0 0.0
2017-Oct-20 07:58N 01°11' E 103°43'0 0.0
2017-Oct-20 07:28N 01°11' E 103°43'0 0.0
2017-Oct-20 06:58N 01°11' E 103°43'0 0.0
2017-Oct-20 06:28N 01°11' E 103°43'0 0.1
2017-Oct-20 05:55N 01°11' E 103°43'0 0.0
2017-Oct-20 05:28N 01°11' E 103°43'0 0.0
2017-Oct-20 04:58N 01°11' E 103°43'0 0.0
2017-Oct-20 04:28N 01°11' E 103°43'0 0.0
2017-Oct-20 03:58N 01°11' E 103°43'0 0.0
2017-Oct-20 03:28N 01°11' E 103°43'0 0.0
2017-Oct-20 02:58N 01°11' E 103°43'0 0.0
2017-Oct-20 02:28N 01°11' E 103°43'0 0.0
2017-Oct-20 01:58N 01°11' E 103°43'0 0.2
2017-Oct-20 01:25N 01°11' E 103°43'0 0.4
2017-Oct-20 00:55N 01°11' E 103°42'0 0.2
2017-Oct-20 00:28N 01°11' E 103°42'0 0.0
2017-Oct-19 23:58N 01°11' E 103°42'0 0.0
2017-Oct-19 23:28N 01°11' E 103°42'0 0.0
2017-Oct-19 22:55N 01°11' E 103°42'0 0.0
2017-Oct-19 22:28N 01°11' E 103°42'0 0.1
2017-Oct-19 21:22N 01°11' E 103°42'0 0.2
2017-Oct-19 20:58N 01°11' E 103°43'0 0.0
2017-Oct-19 20:28N 01°11' E 103°43'0 0.0
2017-Oct-19 19:55N 01°11' E 103°43'0 0.0
2017-Oct-19 19:19N 01°11' E 103°43'0 0.2
2017-Oct-19 18:58N 01°11' E 103°43'0 0.1
2017-Oct-19 18:25N 01°11' E 103°43'0 0.1
2017-Oct-19 17:58N 01°11' E 103°43'0 0.0
2017-Oct-19 17:25N 01°11' E 103°43'0 0.1
2017-Oct-19 16:58N 01°11' E 103°43'0 0.9
2017-Oct-19 16:30N 01°10' E 103°43'2 4.5
2017-Oct-19 16:00N 01°11' E 103°41'4 8.8
2017-Oct-19 15:30N 01°12' E 103°36'712.7
2017-Oct-19 14:59N 01°10' E 103°30'714.2
2017-Oct-19 14:29N 01°13' E 103°24'714.9
2017-Oct-19 13:59N 01°17' E 103°18'815.1
2017-Oct-19 13:29N 01°22' E 103°12'1015.1
2017-Oct-19 12:50N 01°28' E 103°04'  
2017-Oct-14 06:00S 06°06' E 078°36'12816.0 120 1011.010.8 27.024.328.0
2017-Oct-13 22:00S 07°24' E 076°54'21715.5 120 / 161009.010.8 26.023.028.0
2017-Oct-13 08:00S 09°36' E 074°00'30012.0 120 / 431010.010.8 28.022.028.0
2017-Oct-12 07:00S 12°42' E 070°00'   100 1011.010.8 25.019.026.0

Dump ship's entire track history